Time,TemperatureF,DewpointF,PressureIn,WindDirection,WindDirectionDegrees,WindSpeedMPH,WindSpeedGustMPH,Humidity,HourlyPrecipIn,Conditions,Clouds,dailyrainin,SoftwareType,DateUTC
2013-01-19 00:14:00,46.8,40.6,30.02,ESE,112,0.0,-999.0,79,-99.99,,,0.00,Acu-Link.com,2013-01-19 05:14:00,
2013-01-19 00:45:00,47.1,40.9,30.01,SSW,202,0.0,-999.0,79,-99.99,,,0.00,Acu-Link.com,2013-01-19 05:45:00,
2013-01-19 01:00:00,47.1,40.9,30.00,South,180,0.0,-999.0,79,-99.99,,,0.00,Acu-Link.com,2013-01-19 06:00:00,
2013-01-19 01:16:00,47.1,41.3,30.00,West,270,0.0,-999.0,80,-99.99,,,0.00,Acu-Link.com,2013-01-19 06:16:00,
2013-01-19 01:31:00,46.9,41.1,30.00,ESE,112,0.0,-999.0,80,-99.99,,,0.00,Acu-Link.com,2013-01-19 06:31:00,
2013-01-19 01:46:00,46.8,40.9,29.99,West,270,0.0,-999.0,80,-99.99,,,0.00,Acu-Link.com,2013-01-19 06:46:00,
2013-01-19 02:02:00,46.6,41.4,29.99,ENE,67,1.1,-999.0,82,-99.99,,,0.00,Acu-Link.com,2013-01-19 07:02:00,
2013-01-19 02:17:00,46.8,41.6,29.99,WNW,292,0.0,-999.0,82,-99.99,,,0.00,Acu-Link.com,2013-01-19 07:17:00,
2013-01-19 02:32:00,46.6,41.4,29.99,NNE,22,0.0,-999.0,82,-99.99,,,0.00,Acu-Link.com,2013-01-19 07:32:00,
2013-01-19 02:47:00,46.8,41.6,29.99,NNE,22,0.0,-999.0,82,-99.99,,,0.00,Acu-Link.com,2013-01-19 07:47:00,
2013-01-19 03:03:00,46.9,41.4,29.99,NNW,337,0.0,-999.0,81,-99.99,,,0.00,Acu-Link.com,2013-01-19 08:03:00,
2013-01-19 03:18:00,47.3,41.8,29.99,West,270,0.0,-999.0,81,-99.99,,,0.00,Acu-Link.com,2013-01-19 08:18:00,
2013-01-19 03:33:00,47.5,41.6,29.99,NW,315,0.0,-999.0,80,-99.99,,,0.00,Acu-Link.com,2013-01-19 08:33:00,
2013-01-19 03:49:00,47.5,41.6,29.98,SSE,157,1.1,-999.0,80,-99.99,,,0.00,Acu-Link.com,2013-01-19 08:49:00,
2013-01-19 04:35:00,47.3,41.4,29.97,North,0,0.0,-999.0,80,-99.99,,,0.00,Acu-Link.com,2013-01-19 09:35:00,
2013-01-19 04:51:00,47.1,40.9,29.97,SE,135,0.0,-999.0,79,-99.99,,,0.00,Acu-Link.com,2013-01-19 09:51:00,
2013-01-19 05:06:00,46.9,41.1,29.97,South,180,0.0,-999.0,80,-99.99,,,0.00,Acu-Link.com,2013-01-19 10:06:00,
2013-01-19 05:21:00,46.8,40.9,29.96,SSW,202,1.1,-999.0,80,-99.99,,,0.00,Acu-Link.com,2013-01-19 10:21:00,
2013-01-19 05:36:00,46.8,40.9,29.96,NNE,22,0.0,-999.0,80,-99.99,,,0.00,Acu-Link.com,2013-01-19 10:36:00,
2013-01-19 05:52:00,46.4,40.6,29.97,NNE,22,0.0,-999.0,80,-99.99,,,0.00,Acu-Link.com,2013-01-19 10:52:00,
2013-01-19 06:07:00,46.2,40.7,29.97,WSW,247,0.0,-999.0,81,-99.99,,,0.00,Acu-Link.com,2013-01-19 11:07:00,
2013-01-19 07:57:00,45.9,41.3,29.97,WNW,292,0.0,-999.0,84,-99.99,,,0.00,Acu-Link.com,2013-01-19 12:57:00,
2013-01-19 08:12:00,46.4,41.8,29.98,NE,45,0.0,-999.0,84,-99.99,,,0.00,Acu-Link.com,2013-01-19 13:12:00,
2013-01-19 08:27:00,48.2,42.3,29.98,West,270,1.6,-999.0,80,-99.99,,,0.00,Acu-Link.com,2013-01-19 13:27:00,
2013-01-19 08:43:00,50.9,43.3,29.99,NNW,337,2.2,-999.0,75,-99.99,,,0.00,Acu-Link.com,2013-01-19 13:43:00,
2013-01-19 08:58:00,53.1,44.3,29.99,SE,135,1.6,-999.0,72,-99.99,,,0.00,Acu-Link.com,2013-01-19 13:58:00,
2013-01-19 09:13:00,54.7,45.5,30.00,NNW,337,1.6,-999.0,71,-99.99,,,0.00,Acu-Link.com,2013-01-19 14:13:00,
2013-01-19 09:29:00,55.9,46.7,30.00,NNE,22,2.2,-999.0,71,-99.99,,,0.00,Acu-Link.com,2013-01-19 14:29:00,
2013-01-19 09:44:00,57.4,47.7,30.00,ESE,112,1.1,-999.0,70,-99.99,,,0.00,Acu-Link.com,2013-01-19 14:44:00,
2013-01-19 09:59:00,59.0,48.5,30.00,ENE,67,2.7,-999.0,68,-99.99,,,0.00,Acu-Link.com,2013-01-19 14:59:00,
2013-01-19 10:14:00,59.9,49.7,30.00,ENE,67,2.2,-999.0,69,-99.99,,,0.00,Acu-Link.com,2013-01-19 15:14:00,
2013-01-19 10:29:00,60.4,51.0,30.00,ENE,67,2.7,-999.0,71,-99.99,,,0.00,Acu-Link.com,2013-01-19 15:29:00,
2013-01-19 10:45:00,61.3,51.9,30.00,NE,45,1.6,-999.0,71,-99.99,,,0.00,Acu-Link.com,2013-01-19 15:45:00,
2013-01-19 11:00:00,62.2,52.7,29.99,SSE,157,4.7,-999.0,71,-99.99,,,0.00,Acu-Link.com,2013-01-19 16:00:00,
2013-01-19 11:15:00,62.4,52.9,29.99,NNE,22,4.3,-999.0,71,-99.99,,,0.00,Acu-Link.com,2013-01-19 16:15:00,
2013-01-19 11:31:00,63.9,53.5,29.98,SSE,157,2.2,-999.0,69,-99.99,,,0.00,Acu-Link.com,2013-01-19 16:31:00,
2013-01-19 11:46:00,63.9,53.5,29.97,ENE,67,3.1,-999.0,69,-99.99,,,0.00,Acu-Link.com,2013-01-19 16:46:00,
2013-01-19 12:01:00,63.1,53.2,29.96,ENE,67,3.8,-999.0,70,-99.99,,,0.00,Acu-Link.com,2013-01-19 17:01:00,
2013-01-19 12:32:00,64.8,53.5,29.94,North,0,3.1,-999.0,67,-99.99,,,0.00,Acu-Link.com,2013-01-19 17:32:00,
2013-01-19 12:47:00,64.9,54.1,29.93,NNW,337,1.6,-999.0,68,-99.99,,,0.00,Acu-Link.com,2013-01-19 17:47:00,
2013-01-19 13:02:00,64.4,53.6,29.92,ENE,67,4.3,-999.0,68,-99.99,,,0.00,Acu-Link.com,2013-01-19 18:02:00,
2013-01-19 13:18:00,63.9,53.5,29.91,East,90,4.7,-999.0,69,-99.99,,,0.00,Acu-Link.com,2013-01-19 18:18:00,
2013-01-19 13:33:00,64.0,53.7,29.90,West,270,2.2,-999.0,69,-99.99,,,0.00,Acu-Link.com,2013-01-19 18:33:00,
2013-01-19 13:48:00,63.7,53.7,29.90,ESE,112,5.8,-999.0,70,-99.99,,,0.00,Acu-Link.com,2013-01-19 18:48:00,
2013-01-19 14:04:00,63.1,53.6,29.88,NNE,22,2.2,-999.0,71,-99.99,,,0.00,Acu-Link.com,2013-01-19 19:04:00,
2013-01-19 14:19:00,63.3,53.8,29.88,WSW,247,1.6,-999.0,71,-99.99,,,0.00,Acu-Link.com,2013-01-19 19:19:00,
2013-01-19 14:34:00,63.1,53.6,29.87,ESE,112,3.8,-999.0,71,-99.99,,,0.00,Acu-Link.com,2013-01-19 19:34:00,
2013-01-19 14:50:00,61.5,53.5,29.86,East,90,2.7,-999.0,75,-99.99,,,0.00,Acu-Link.com,2013-01-19 19:50:00,
2013-01-19 15:05:00,61.7,53.7,29.86,East,90,5.1,-999.0,75,-99.99,,,0.00,Acu-Link.com,2013-01-19 20:05:00,
2013-01-19 15:35:00,60.8,53.9,29.86,NE,45,1.6,-999.0,78,-99.99,,,0.00,Acu-Link.com,2013-01-19 20:35:00,
2013-01-19 16:06:00,60.1,53.9,29.87,ESE,112,0.0,-999.0,80,-99.99,,,0.00,Acu-Link.com,2013-01-19 21:06:00,
2013-01-19 16:21:00,60.1,53.9,29.87,East,90,2.2,-999.0,80,-99.99,,,0.00,Acu-Link.com,2013-01-19 21:21:00,
2013-01-19 16:37:00,60.1,54.2,29.87,South,180,2.7,-999.0,81,-99.99,,,0.00,Acu-Link.com,2013-01-19 21:37:00,
2013-01-19 16:52:00,60.1,54.2,29.87,ESE,112,1.6,-999.0,81,-99.99,,,0.00,Acu-Link.com,2013-01-19 21:52:00,
2013-01-19 17:22:00,59.4,54.2,29.88,ENE,67,3.1,-999.0,83,-99.99,,,0.00,Acu-Link.com,2013-01-19 22:22:00,
2013-01-19 17:53:00,58.8,54.3,29.87,WNW,292,2.2,-999.0,85,-99.99,,,0.00,Acu-Link.com,2013-01-19 22:53:00,
2013-01-19 18:08:00,58.8,54.3,29.88,NNE,22,2.2,-999.0,85,-99.99,,,0.00,Acu-Link.com,2013-01-19 23:08:00,
2013-01-19 18:24:00,58.3,54.1,29.87,NE,45,1.6,-999.0,86,-99.99,,,0.00,Acu-Link.com,2013-01-19 23:24:00,
2013-01-19 18:39:00,58.3,54.1,29.88,SE,135,1.1,-999.0,86,-99.99,,,0.00,Acu-Link.com,2013-01-19 23:39:00,
2013-01-19 18:54:00,58.1,54.2,29.88,West,270,2.2,-999.0,87,-99.99,,,0.00,Acu-Link.com,2013-01-19 23:54:00,
2013-01-19 19:10:00,58.1,54.2,29.88,NNE,22,0.0,-999.0,87,-99.99,,,0.00,Acu-Link.com,2013-01-20 00:10:00,
2013-01-19 19:25:00,58.1,54.6,29.89,NE,45,1.1,-999.0,88,-99.99,,,0.00,Acu-Link.com,2013-01-20 00:25:00,
2013-01-19 19:40:00,57.9,54.7,29.88,NE,45,0.0,-999.0,89,-99.99,,,0.00,Acu-Link.com,2013-01-20 00:40:00,
2013-01-19 19:55:00,57.9,54.7,29.87,West,270,1.1,-999.0,89,-99.99,,,0.00,Acu-Link.com,2013-01-20 00:55:00,
2013-01-19 20:11:00,57.9,55.0,29.87,SE,135,1.6,-999.0,90,-99.99,,,0.00,Acu-Link.com,2013-01-20 01:11:00,
2013-01-19 20:26:00,57.9,55.0,29.87,South,180,0.0,-999.0,90,-99.99,,,0.00,Acu-Link.com,2013-01-20 01:26:00,
2013-01-19 20:41:00,58.1,55.2,29.88,NNW,337,0.0,-999.0,90,-99.99,,,0.00,Acu-Link.com,2013-01-20 01:41:00,
2013-01-19 21:12:00,57.9,55.3,29.88,West,270,0.0,-999.0,91,-99.99,,,0.00,Acu-Link.com,2013-01-20 02:12:00,
2013-01-19 21:43:00,57.4,54.8,29.87,West,270,0.0,-999.0,91,-99.99,,,0.00,Acu-Link.com,2013-01-20 02:43:00,
2013-01-19 21:58:00,57.2,54.6,29.86,NW,315,0.0,-999.0,91,-99.99,,,0.00,Acu-Link.com,2013-01-20 02:58:00,
2013-01-19 22:13:00,56.8,54.2,29.86,WNW,292,0.0,-999.0,91,-99.99,,,0.00,Acu-Link.com,2013-01-20 03:13:00,
2013-01-19 22:28:00,56.5,53.9,29.87,NNW,337,0.0,-999.0,91,-99.99,,,0.00,Acu-Link.com,2013-01-20 03:28:00,
2013-01-19 22:43:00,55.9,53.6,29.86,NNW,337,0.0,-999.0,92,-99.99,,,0.00,Acu-Link.com,2013-01-20 03:43:00,
2013-01-19 22:59:00,55.8,53.5,29.87,East,90,0.0,-999.0,92,-99.99,,,0.00,Acu-Link.com,2013-01-20 03:59:00,
2013-01-19 23:14:00,55.4,53.1,29.85,East,90,0.0,-999.0,92,-99.99,,,0.00,Acu-Link.com,2013-01-20 04:14:00,
2013-01-19 23:29:00,55.2,53.5,29.85,NE,45,0.0,-999.0,94,-99.99,,,0.00,Acu-Link.com,2013-01-20 04:29:00,
2013-01-19 23:45:00,55.0,53.3,29.85,West,270,0.0,-999.0,94,-99.99,,,0.00,Acu-Link.com,2013-01-20 04:45:00,